createdAt,value
2023-04-15T00:01:13.013Z,8.13
2023-04-15T00:03:40.867Z,8.05
2023-04-15T00:06:08.643Z,7.97
2023-04-15T00:08:36.168Z,7.90
2023-04-15T00:11:03.865Z,7.84
2023-04-15T00:13:34.317Z,7.78
2023-04-15T00:16:02.408Z,7.69
2023-04-15T00:18:30.158Z,7.61
2023-04-15T00:20:57.809Z,7.53
2023-04-15T00:23:25.757Z,7.45
2023-04-15T00:25:53.276Z,7.39
2023-04-15T00:28:20.855Z,7.37
2023-04-15T00:30:48.498Z,7.35
2023-04-15T00:33:16.072Z,7.28
2023-04-15T00:35:43.692Z,7.22
2023-04-15T00:38:11.486Z,7.17
2023-04-15T00:40:39.190Z,7.09
2023-04-15T00:43:06.901Z,7.05
2023-04-15T00:45:34.543Z,6.99
2023-04-15T00:48:02.418Z,6.96
2023-04-15T00:50:30.037Z,6.96
2023-04-15T00:52:57.601Z,6.99
2023-04-15T00:55:25.216Z,7.04
2023-04-15T00:57:52.909Z,7.07
2023-04-15T01:00:21.062Z,7.13
2023-04-15T01:02:49.195Z,7.18
2023-04-15T01:05:17.424Z,7.23
2023-04-15T01:07:44.981Z,7.29
2023-04-15T01:10:12.559Z,7.35
2023-04-15T01:12:40.539Z,7.42
2023-04-15T01:15:08.642Z,7.45
2023-04-15T01:17:36.460Z,7.51
2023-04-15T01:20:04.439Z,7.58
2023-04-15T01:22:34.289Z,7.62
2023-04-15T01:25:06.865Z,7.65
2023-04-15T01:27:35.611Z,7.67
2023-04-15T01:30:03.291Z,7.69
2023-04-15T01:32:30.962Z,7.72
2023-04-15T01:34:58.506Z,7.76
2023-04-15T01:37:26.216Z,7.79
2023-04-15T01:39:53.765Z,7.80
2023-04-15T01:42:21.702Z,7.82
2023-04-15T01:44:49.273Z,7.81
2023-04-15T01:47:16.841Z,7.81
2023-04-15T01:49:44.389Z,7.77
2023-04-15T01:52:11.954Z,7.72
2023-04-15T01:54:39.478Z,7.66
2023-04-15T01:57:07.031Z,7.60
2023-04-15T01:59:34.613Z,7.54
2023-04-15T02:02:02.176Z,7.45
2023-04-15T02:04:29.932Z,7.36
2023-04-15T02:06:57.455Z,7.27
2023-04-15T02:09:25.097Z,7.19
2023-04-15T02:11:52.765Z,7.11
2023-04-15T02:14:20.300Z,7.04
2023-04-15T02:16:47.946Z,6.99
2023-04-15T02:19:15.572Z,6.94
2023-04-15T02:21:43.154Z,6.89
2023-04-15T02:24:10.649Z,6.85
2023-04-15T02:26:38.185Z,6.82
2023-04-15T02:29:06.238Z,6.82
2023-04-15T02:31:33.829Z,6.81
2023-04-15T02:34:01.468Z,6.79
2023-04-15T02:36:28.998Z,6.76
2023-04-15T02:38:56.525Z,6.71
2023-04-15T02:41:24.058Z,6.66
2023-04-15T02:43:51.556Z,6.61
2023-04-15T02:46:19.128Z,6.56
2023-04-15T02:48:46.707Z,6.49
2023-04-15T02:51:14.693Z,6.41
2023-04-15T02:53:42.901Z,6.33
2023-04-15T02:56:10.452Z,6.25
2023-04-15T02:58:38.262Z,6.16
2023-04-15T03:04:46.460Z,5.91
2023-04-15T03:07:14.231Z,5.81
2023-04-15T03:09:41.779Z,5.74
2023-04-15T03:12:09.379Z,5.67
2023-04-15T03:14:36.993Z,5.62
2023-04-15T03:17:04.709Z,5.58
2023-04-15T03:19:32.310Z,5.57
2023-04-15T03:21:59.857Z,5.56
2023-04-15T03:24:27.496Z,5.55
2023-04-15T03:26:55.176Z,5.54
2023-04-15T03:29:22.818Z,5.50
2023-04-15T03:31:50.451Z,5.46
2023-04-15T03:34:18.078Z,5.39
2023-04-15T03:36:46.402Z,5.30
2023-04-15T03:39:14.055Z,5.21
2023-04-15T03:41:41.700Z,5.09
2023-04-15T03:44:09.383Z,4.99
2023-04-15T03:46:36.926Z,4.92
2023-04-15T03:49:06.951Z,4.85
2023-04-15T03:51:34.527Z,4.78
2023-04-15T03:54:02.062Z,4.72
2023-04-15T03:56:29.560Z,4.69
2023-04-15T03:58:57.107Z,4.63
2023-04-15T04:01:24.743Z,4.58
2023-04-15T04:03:52.477Z,4.51
2023-04-15T04:06:20.268Z,4.46
2023-04-15T04:08:47.785Z,4.41
2023-04-15T04:11:15.322Z,4.38
2023-04-15T04:13:42.837Z,4.36
2023-04-15T04:16:10.523Z,4.36
2023-04-15T04:18:38.124Z,4.40
2023-04-15T04:21:05.960Z,4.42
2023-04-15T04:23:33.557Z,4.43
2023-04-15T04:26:01.116Z,4.45
2023-04-15T04:28:28.675Z,4.50
2023-04-15T04:30:56.371Z,4.59
2023-04-15T04:33:24.004Z,4.69
2023-04-15T04:35:51.566Z,4.77
2023-04-15T04:38:19.086Z,4.86
2023-04-15T04:40:46.673Z,4.94
2023-04-15T04:43:14.272Z,5.01
2023-04-15T04:45:41.927Z,5.08
2023-04-15T04:48:09.452Z,5.14
2023-04-15T04:50:37.340Z,5.24
2023-04-15T04:53:04.952Z,5.34
2023-04-15T04:55:32.487Z,5.47
2023-04-15T04:58:00.184Z,5.60
2023-04-15T05:00:27.690Z,5.70
2023-04-15T05:02:55.469Z,5.80
2023-04-15T05:05:23.199Z,5.91
2023-04-15T05:07:50.849Z,6.05
2023-04-15T05:10:18.462Z,6.21
2023-04-15T05:12:46.014Z,6.34
2023-04-15T05:15:13.621Z,6.45
2023-04-15T05:17:41.222Z,6.54
2023-04-15T05:20:09.097Z,6.64
2023-04-15T05:22:36.998Z,6.75
2023-04-15T05:25:04.988Z,6.86
2023-04-15T05:27:32.569Z,6.98
2023-04-15T05:30:00.173Z,7.14
2023-04-15T05:32:27.734Z,7.30
2023-04-15T05:34:55.297Z,7.47
2023-04-15T05:37:22.807Z,7.65
2023-04-15T05:39:50.357Z,7.82
2023-04-15T05:42:17.911Z,7.97
2023-04-15T05:44:45.470Z,8.12
2023-04-15T05:47:13.022Z,8.28
2023-04-15T05:49:40.605Z,8.46
2023-04-15T05:52:08.111Z,8.66
2023-04-15T05:54:35.622Z,8.85
2023-04-15T05:57:03.254Z,8.98
2023-04-15T05:59:30.754Z,9.12
2023-04-15T06:01:58.331Z,9.23
2023-04-15T06:04:26.050Z,9.35
2023-04-15T06:06:53.776Z,9.48
2023-04-15T06:09:21.368Z,9.63
2023-04-15T06:11:48.874Z,9.82
2023-04-15T06:14:16.413Z,10.05
2023-04-15T06:16:44.098Z,10.28
2023-04-15T06:19:11.667Z,10.43
2023-04-15T06:21:39.234Z,10.56
2023-04-15T06:24:07.016Z,10.62
2023-04-15T06:26:34.595Z,10.58
2023-04-15T06:29:02.310Z,10.59
2023-04-15T06:31:30.405Z,10.59
2023-04-15T06:33:57.971Z,10.61
2023-04-15T06:36:25.508Z,10.63
2023-04-15T06:38:53.030Z,10.63
2023-04-15T06:41:20.599Z,10.58
2023-04-15T06:43:48.213Z,10.60
2023-04-15T06:46:15.819Z,10.67
2023-04-15T06:48:43.433Z,10.73
2023-04-15T06:51:10.958Z,10.82
2023-04-15T06:53:38.534Z,10.85
2023-04-15T06:56:07.774Z,10.83
2023-04-15T06:58:35.388Z,10.70
2023-04-15T07:01:03.048Z,10.67
2023-04-15T07:03:32.636Z,10.75
2023-04-15T07:06:00.517Z,10.91
2023-04-15T07:08:28.028Z,11.05
2023-04-15T07:10:55.546Z,11.24
2023-04-15T07:13:23.113Z,11.46
2023-04-15T07:15:50.658Z,11.63
2023-04-15T07:18:18.196Z,11.78
2023-04-15T07:20:45.755Z,11.89
2023-04-15T07:23:13.286Z,12.02
2023-04-15T07:25:40.861Z,12.09
2023-04-15T07:28:08.408Z,12.11
2023-04-15T07:30:36.040Z,12.15
2023-04-15T07:33:03.846Z,12.14
2023-04-15T07:35:31.516Z,12.20
2023-04-15T07:37:59.034Z,12.32
2023-04-15T07:40:26.668Z,12.46
2023-04-15T07:42:54.481Z,12.55
2023-04-15T07:45:22.005Z,12.59
2023-04-15T07:47:49.681Z,12.66
2023-04-15T07:50:17.541Z,12.69
2023-04-15T07:52:45.203Z,12.60
2023-04-15T07:55:13.313Z,12.49
2023-04-15T07:57:40.817Z,12.45
2023-04-15T08:00:08.922Z,12.47
2023-04-15T08:02:38.192Z,12.51
2023-04-15T08:05:07.828Z,12.62
2023-04-15T08:07:37.469Z,12.81
2023-04-15T08:10:05.797Z,12.97
2023-04-15T08:12:33.355Z,13.11
2023-04-15T08:15:00.923Z,13.31
2023-04-15T08:17:28.521Z,13.54
2023-04-15T08:19:56.154Z,13.86
2023-04-15T08:22:23.670Z,14.21
2023-04-15T08:24:51.255Z,14.56
2023-04-15T08:27:19.137Z,14.85
2023-04-15T08:29:46.696Z,14.99
2023-04-15T08:32:14.382Z,15.10
2023-04-15T08:34:42.073Z,15.17
2023-04-15T08:37:10.845Z,15.49
2023-04-15T08:39:39.069Z,15.87
2023-04-15T08:42:12.733Z,16.15
2023-04-15T08:44:40.788Z,16.41
2023-04-15T08:47:09.086Z,16.50
2023-04-15T08:49:40.065Z,16.51
2023-04-15T08:52:09.186Z,16.39
2023-04-15T08:54:37.894Z,16.44
2023-04-15T08:57:06.286Z,16.52
2023-04-15T08:59:33.886Z,16.60
2023-04-15T09:02:02.657Z,16.74
2023-04-15T09:04:30.373Z,16.95
2023-04-15T09:06:57.929Z,17.05
2023-04-15T09:09:25.505Z,17.39
2023-04-15T09:11:53.120Z,17.81
2023-04-15T09:14:20.624Z,18.16
2023-04-15T09:16:57.868Z,18.38
2023-04-15T09:19:25.650Z,18.14
2023-04-15T09:21:58.910Z,17.92
2023-04-15T09:24:36.448Z,17.89
2023-04-15T09:27:04.439Z,18.02
2023-04-15T09:29:32.073Z,18.10
2023-04-15T09:32:13.687Z,18.34
2023-04-15T09:34:41.281Z,18.82
2023-04-15T09:37:08.817Z,19.12
2023-04-15T09:39:46.930Z,19.23
2023-04-15T09:42:14.533Z,19.23
2023-04-15T09:44:42.092Z,19.44
2023-04-15T09:47:09.649Z,19.55
2023-04-15T09:49:37.247Z,19.45
2023-04-15T09:52:06.455Z,19.29
2023-04-15T09:54:38.482Z,19.06
2023-04-15T09:57:08.149Z,18.79
2023-04-15T09:59:36.026Z,18.66
2023-04-15T10:02:06.442Z,18.48
2023-04-15T10:04:40.765Z,18.49
2023-04-15T10:07:12.293Z,18.90
2023-04-15T10:09:40.500Z,19.41
2023-04-15T10:12:08.992Z,19.64
2023-04-15T10:14:38.872Z,19.89
2023-04-15T10:17:08.050Z,19.90
2023-04-15T10:19:37.493Z,19.82
2023-04-15T10:22:06.287Z,19.92
2023-04-15T10:24:34.209Z,19.91
2023-04-15T10:27:03.660Z,19.79
2023-04-15T10:29:31.478Z,20.04
2023-04-15T10:31:59.911Z,20.30
2023-04-15T10:34:27.945Z,20.46
2023-04-15T10:36:56.722Z,20.29
2023-04-15T10:39:33.524Z,20.07
2023-04-15T10:42:19.733Z,19.84
2023-04-15T10:44:51.455Z,19.72
2023-04-15T10:47:21.468Z,19.62
2023-04-15T10:49:57.877Z,19.57
2023-04-15T10:52:27.552Z,19.54
2023-04-15T10:55:18.880Z,19.62
2023-04-15T10:57:46.486Z,19.64
2023-04-15T11:00:15.785Z,19.49
2023-04-15T11:02:54.095Z,19.41
2023-04-15T11:05:42.777Z,19.42
2023-04-15T11:08:11.643Z,19.43
2023-04-15T11:10:39.138Z,19.55
2023-04-15T11:13:09.634Z,19.86
2023-04-15T11:15:39.820Z,20.39
2023-04-15T11:18:19.236Z,20.69
2023-04-15T11:20:59.128Z,20.78
2023-04-15T11:23:32.473Z,20.81
2023-04-15T11:26:01.853Z,20.86
2023-04-15T11:28:31.202Z,20.85
2023-04-15T11:31:05.565Z,20.73
2023-04-15T11:33:33.140Z,20.56
2023-04-15T11:36:01.225Z,20.28
2023-04-15T11:38:29.052Z,19.84
2023-04-15T11:40:57.005Z,19.44
2023-04-15T11:43:24.656Z,19.43
2023-04-15T11:46:00.380Z,19.38
2023-04-15T11:48:30.162Z,19.14
2023-04-15T11:51:02.741Z,18.86
2023-04-15T11:53:56.645Z,18.61
2023-04-15T11:56:26.341Z,18.42
2023-04-15T11:58:56.985Z,18.32
2023-04-15T12:01:35.989Z,18.13
2023-04-15T12:04:11.621Z,17.94
2023-04-15T12:06:39.354Z,17.91
2023-04-15T12:09:06.984Z,18.15
2023-04-15T12:11:45.057Z,19.01
2023-04-15T12:14:15.874Z,21.01
2023-04-15T12:16:49.775Z,23.01
2023-04-15T12:19:24.691Z,25.41
2023-04-15T12:21:58.266Z,25.90
2023-04-15T12:24:28.265Z,25.64
2023-04-15T12:27:01.945Z,25.36
2023-04-15T12:29:31.101Z,26.09
2023-04-15T12:32:04.740Z,28.82
2023-04-15T12:34:37.384Z,29.32
2023-04-15T12:37:07.275Z,29.18
2023-04-15T12:39:39.805Z,28.40
2023-04-15T12:42:08.493Z,27.36
2023-04-15T12:44:37.236Z,26.42
2023-04-15T12:47:05.116Z,26.09
2023-04-15T12:49:33.107Z,25.56
2023-04-15T12:52:02.515Z,24.79
2023-04-15T12:54:31.057Z,24.05
2023-04-15T12:56:59.651Z,23.53
2023-04-15T12:59:28.617Z,23.27
2023-04-15T13:01:56.284Z,23.16
2023-04-15T13:04:24.131Z,25.32
2023-04-15T13:06:51.764Z,28.22
2023-04-15T13:09:19.473Z,30.99
2023-04-15T13:11:47.064Z,33.30
2023-04-15T13:14:14.579Z,35.21
2023-04-15T13:16:42.155Z,36.86
2023-04-15T13:19:09.701Z,38.04
2023-04-15T13:21:37.211Z,39.26
2023-04-15T13:24:05.185Z,40.20
2023-04-15T13:26:32.871Z,40.92
2023-04-15T13:29:00.890Z,41.52
2023-04-15T13:31:28.678Z,41.81
2023-04-15T13:33:57.611Z,39.38
2023-04-15T13:36:25.271Z,36.62
2023-04-15T13:38:52.846Z,36.03
2023-04-15T13:41:20.379Z,35.64
2023-04-15T13:43:47.953Z,34.81
2023-04-15T13:46:15.964Z,33.30
2023-04-15T13:48:43.584Z,33.65
2023-04-15T13:51:11.278Z,34.56
2023-04-15T13:53:39.762Z,36.14
2023-04-15T13:56:08.354Z,34.97
2023-04-15T13:58:37.226Z,32.99
2023-04-15T14:01:06.463Z,31.15
2023-04-15T14:03:35.359Z,29.00
2023-04-15T14:06:03.097Z,27.08
2023-04-15T14:08:30.660Z,25.41
2023-04-15T14:10:58.256Z,24.22
2023-04-15T14:13:25.893Z,23.33
2023-04-15T14:15:53.564Z,22.36
2023-04-15T14:18:21.219Z,21.63
2023-04-15T14:20:48.808Z,21.04
2023-04-15T14:23:16.339Z,20.62
2023-04-15T14:25:45.067Z,20.13
2023-04-15T14:28:14.623Z,19.71
2023-04-15T14:30:42.434Z,19.70
2023-04-15T14:33:10.089Z,19.40
2023-04-15T14:35:37.837Z,19.04
2023-04-15T14:38:05.466Z,18.94
2023-04-15T14:40:33.629Z,18.85
2023-04-15T14:43:01.182Z,19.14
2023-04-15T14:45:30.395Z,19.48
2023-04-15T14:47:59.341Z,19.73
2023-04-15T14:50:26.960Z,20.09
2023-04-15T14:52:54.465Z,21.47
2023-04-15T14:55:22.110Z,24.22
2023-04-15T14:57:49.737Z,26.59
2023-04-15T15:00:17.459Z,29.02
2023-04-15T15:02:45.139Z,31.27
2023-04-15T15:05:13.024Z,33.12
2023-04-15T15:07:40.748Z,34.72
2023-04-15T15:10:08.996Z,35.35
2023-04-15T15:12:36.605Z,33.73
2023-04-15T15:15:09.208Z,32.37
2023-04-15T15:17:43.661Z,30.84
2023-04-15T15:20:11.481Z,29.35
2023-04-15T15:22:39.014Z,27.94
2023-04-15T15:25:06.795Z,27.78
2023-04-15T15:27:35.487Z,27.85
2023-04-15T15:30:05.085Z,29.67
2023-04-15T15:32:32.687Z,31.64
2023-04-15T15:35:00.272Z,31.99
2023-04-15T15:37:28.032Z,31.85
2023-04-15T15:39:55.544Z,30.57
2023-04-15T15:42:23.263Z,29.63
2023-04-15T15:44:50.838Z,28.39
2023-04-15T15:47:19.160Z,27.20
2023-04-15T15:49:46.758Z,26.11
2023-04-15T15:52:14.375Z,25.12
2023-04-15T15:54:41.928Z,24.14
2023-04-15T15:57:09.493Z,23.28
2023-04-15T15:59:37.046Z,22.54
2023-04-15T16:02:04.802Z,21.89
2023-04-15T16:04:32.668Z,21.27
2023-04-15T16:07:00.421Z,20.66
2023-04-15T16:09:27.964Z,20.22
2023-04-15T16:11:55.617Z,19.81
2023-04-15T16:14:24.172Z,19.44
2023-04-15T16:16:52.626Z,19.12
2023-04-15T16:19:21.245Z,18.86
2023-04-15T16:21:48.865Z,18.72
2023-04-15T16:24:16.420Z,19.84
2023-04-15T16:26:43.933Z,20.45
2023-04-15T16:29:11.470Z,19.98
2023-04-15T16:31:39.152Z,19.32
2023-04-15T16:34:07.084Z,18.61
2023-04-15T16:36:35.220Z,17.98
2023-04-15T16:39:03.060Z,17.42
2023-04-15T16:41:32.604Z,16.96
2023-04-15T16:44:02.084Z,16.54
2023-04-15T16:46:29.848Z,16.13
2023-04-15T16:48:57.435Z,15.66
2023-04-15T16:51:25.001Z,14.92
2023-04-15T16:53:53.035Z,14.23
2023-04-15T16:56:20.605Z,13.76
2023-04-15T16:58:48.157Z,13.37
2023-04-15T17:01:15.762Z,12.98
2023-04-15T17:03:43.737Z,12.50
2023-04-15T17:06:11.652Z,11.89
2023-04-15T17:08:39.331Z,11.35
2023-04-15T17:11:07.256Z,10.91
2023-04-15T17:13:34.860Z,10.47
2023-04-15T17:16:02.651Z,10.08
2023-04-15T17:18:30.280Z,9.76
2023-04-15T17:20:57.939Z,9.53
2023-04-15T17:23:25.991Z,9.35
2023-04-15T17:25:53.710Z,9.20
2023-04-15T17:28:21.328Z,9.07
2023-04-15T17:30:49.009Z,8.95
2023-04-15T17:33:57.504Z,8.85
2023-04-15T17:36:04.870Z,8.78
2023-04-15T17:38:32.525Z,8.72
2023-04-15T17:41:00.146Z,8.69
2023-04-15T17:43:27.701Z,8.66
2023-04-15T17:45:56.542Z,8.65
2023-04-15T17:48:25.641Z,8.62
2023-04-15T17:50:53.222Z,8.60
2023-04-15T17:53:20.852Z,8.56
2023-04-15T17:55:48.396Z,8.53
2023-04-15T17:58:16.137Z,8.50
2023-04-15T18:00:43.693Z,8.49
2023-04-15T18:03:11.548Z,8.48
2023-04-15T18:05:41.365Z,8.48
2023-04-15T18:08:10.514Z,8.47
2023-04-15T18:10:39.270Z,8.47
2023-04-15T18:13:07.166Z,8.48
2023-04-15T18:15:35.078Z,8.49
2023-04-15T18:18:02.803Z,8.50
2023-04-15T18:20:30.381Z,8.50
2023-04-15T18:22:58.224Z,8.51
2023-04-15T18:25:25.943Z,8.52
2023-04-15T18:27:54.912Z,8.55
2023-04-15T18:30:22.961Z,8.55
2023-04-15T18:32:50.871Z,8.53
2023-04-15T18:35:18.784Z,8.51
2023-04-15T18:37:46.338Z,8.49
2023-04-15T18:40:13.950Z,8.46
2023-04-15T18:42:41.600Z,8.43
2023-04-15T18:45:09.550Z,8.37
2023-04-15T18:47:37.458Z,8.34
2023-04-15T18:50:05.888Z,8.31
2023-04-15T18:52:33.592Z,8.28
2023-04-15T18:55:01.248Z,8.25
2023-04-15T18:57:34.791Z,8.21
2023-04-15T19:00:03.367Z,8.17
2023-04-15T19:02:31.143Z,8.13
2023-04-15T19:04:59.382Z,8.08
2023-04-15T19:07:26.978Z,8.05
2023-04-15T19:09:54.556Z,8.02
2023-04-15T19:12:22.391Z,8.00
2023-04-15T19:14:50.325Z,8.00
2023-04-15T19:17:17.980Z,7.99
2023-04-15T19:19:45.543Z,8.00
2023-04-15T19:22:13.395Z,8.00
2023-04-15T19:24:41.250Z,8.00
2023-04-15T19:27:09.163Z,8.00
2023-04-15T19:29:37.126Z,8.00
2023-04-15T19:32:04.956Z,8.00
2023-04-15T19:34:32.855Z,8.01
2023-04-15T19:37:00.688Z,8.02
2023-04-15T19:39:28.263Z,8.03
2023-04-15T19:41:55.894Z,8.02
2023-04-15T19:44:23.430Z,8.02
2023-04-15T19:46:52.452Z,8.03
2023-04-15T19:49:20.308Z,8.02
2023-04-15T19:51:49.390Z,8.01
2023-04-15T19:54:16.976Z,8.00
2023-04-15T19:56:44.550Z,7.99
2023-04-15T19:59:12.175Z,7.96
2023-04-15T20:01:39.734Z,7.92
2023-04-15T20:04:07.500Z,7.86
2023-04-15T20:06:35.213Z,7.79
2023-04-15T20:09:03.418Z,7.70
2023-04-15T20:12:05.122Z,7.60
2023-04-15T20:14:18.929Z,7.48
2023-04-15T20:16:46.579Z,7.41
2023-04-15T20:19:14.271Z,7.33
2023-04-15T20:21:42.092Z,7.26
2023-04-15T20:24:09.932Z,7.19
2023-04-15T20:26:37.571Z,7.08
2023-04-15T20:29:05.460Z,6.95
2023-04-15T20:31:33.229Z,6.82
2023-04-15T20:34:00.821Z,6.69
2023-04-15T20:36:28.372Z,6.57
2023-04-15T20:38:55.879Z,6.44
2023-04-15T20:41:23.426Z,6.32
2023-04-15T20:43:51.037Z,6.20
2023-04-15T20:46:21.554Z,6.09
2023-04-15T20:48:49.325Z,6.03
2023-04-15T20:51:16.914Z,5.99
2023-04-15T20:53:44.461Z,5.94
2023-04-15T20:56:12.027Z,5.92
2023-04-15T20:58:39.596Z,5.91
2023-04-15T21:01:07.416Z,5.91
2023-04-15T21:03:35.180Z,5.88
2023-04-15T21:06:02.885Z,5.88
2023-04-15T21:08:30.424Z,5.85
2023-04-15T21:10:58.067Z,5.79
2023-04-15T21:13:25.653Z,5.74
2023-04-15T21:15:53.195Z,5.69
2023-04-15T21:18:22.019Z,5.63
2023-04-15T21:20:57.546Z,5.58
2023-04-15T21:23:26.392Z,5.54
2023-04-15T21:25:54.027Z,5.48
2023-04-15T21:28:22.241Z,5.45
2023-04-15T21:30:49.917Z,5.50
2023-04-15T21:33:17.939Z,5.53
2023-04-15T21:35:45.562Z,5.49
2023-04-15T21:38:13.162Z,5.50
2023-04-15T21:40:40.927Z,5.55
2023-04-15T21:43:08.716Z,5.59
2023-04-15T21:45:36.597Z,5.64
2023-04-15T21:48:07.834Z,5.70
2023-04-15T21:50:37.267Z,5.73
2023-04-15T21:53:07.665Z,5.73
2023-04-15T21:55:35.624Z,5.72
2023-04-15T21:58:03.223Z,5.67
2023-04-15T22:00:30.727Z,5.61
2023-04-15T22:02:58.374Z,5.55
2023-04-15T22:05:26.005Z,5.54
2023-04-15T22:07:53.517Z,5.53
2023-04-15T22:10:21.145Z,5.51
2023-04-15T22:12:48.692Z,5.48
2023-04-15T22:15:16.239Z,5.47
2023-04-15T22:17:43.775Z,5.46
2023-04-15T22:20:11.344Z,5.45
2023-04-15T22:22:44.173Z,5.47
2023-04-15T22:25:12.374Z,5.49
2023-04-15T22:27:39.928Z,5.49
2023-04-15T22:30:08.265Z,5.48
2023-04-15T22:32:36.016Z,5.45
2023-04-15T22:35:03.976Z,5.41
2023-04-15T22:37:31.588Z,5.36
2023-04-15T22:39:59.301Z,5.31
2023-04-15T22:42:27.302Z,5.27
2023-04-15T22:44:54.857Z,5.23
2023-04-15T22:47:22.437Z,5.20
2023-04-15T22:49:49.950Z,5.17
2023-04-15T22:52:27.195Z,5.15
2023-04-15T22:54:57.476Z,5.12
2023-04-15T22:57:25.092Z,5.11
2023-04-15T22:59:52.662Z,5.13
2023-04-15T23:02:20.322Z,5.16
2023-04-15T23:04:48.193Z,5.17
2023-04-15T23:07:15.782Z,5.14
2023-04-15T23:09:43.348Z,5.11
2023-04-15T23:12:11.008Z,5.06
2023-04-15T23:14:38.565Z,5.01
2023-04-15T23:17:06.252Z,4.96
2023-04-15T23:19:33.828Z,4.90
2023-04-15T23:22:01.443Z,4.83
2023-04-15T23:24:29.008Z,4.77
2023-04-15T23:26:56.545Z,4.70
2023-04-15T23:29:24.118Z,4.63
2023-04-15T23:31:51.648Z,4.55
2023-04-15T23:34:19.327Z,4.49
2023-04-15T23:36:46.881Z,4.44
2023-04-15T23:39:14.497Z,4.39
2023-04-15T23:41:42.091Z,4.35
2023-04-15T23:44:09.689Z,4.30
2023-04-15T23:46:37.305Z,4.25
2023-04-15T23:49:04.893Z,4.21
2023-04-15T23:51:32.448Z,4.19
2023-04-15T23:54:00.056Z,4.17
2023-04-15T23:56:27.638Z,4.16
2023-04-15T23:58:55.196Z,4.17
